KMKL/MKL METAR and TAF weather

Enter ICAO airport designator
Station Type Date Time Source
KMKL METAR 2022/01/29 09:53 UTC NOAA

KMKL 290953Z AUTO 32005KT 10SM CLR M08/M13 A3037 RMK AO2 SLP289 T10781128 $


Station Type Date Time Source
KMKL Decoded METAR 2022/01/29 09:53 UTC NOAA

JACKSON MCKELLAR-SIPES RGNL, TN, United States (KMKL) 35-36N 088-55W 128M
Jan 29, 2022 - 04:53 AM EST / 2022.01.29 0953 UTC
Wind: from the NW (320 degrees) at 6 MPH (5 KT):0
Visibility: 10 mile(s):0
Sky conditions: clear
Temperature: 18.0 F (-7.8 C)
Windchill: 10 F (-12 C):1
Dew Point: 9.0 F (-12.8 C)
Relative Humidity: 67%
Pressure (altimeter): 30.37 in. Hg (1028 hPa)
ob: KMKL 290953Z AUTO 32005KT 10SM CLR M08/M13 A3037 RMK AO2 SLP289 T10781128
cycle: 10

Station Type Date Time Source
KMKL TAF 2022/01/29 06:30 UTC NOAA

TAF KMKL 290529Z 2906/3006 35007KT P6SM SKC
FM291200 VRB04KT P6SM SKC
FM291800 23008KT P6SM SKC
FM300000 19005KT P6SM SKC

Example: see airport list